Main page
METAR-TAF:

METAR-TAF

Airports :

Doha, Qatar

Doha International Airport

latitude: 25-15-40N, longitude: 051-33-54E, elevation: 11 m

Current weather observation

The report was made 1 hour and 3 minutes ago, at 13:00 UTC
Wind 12 kt from the Northwest
Temperature 19°C
Humidity 49%
Pressure 1019 hPa
Visibility: 5000 m
widespread dust

METAR: OTBD 211300Z 31012KT 5000 DU NSC 19/08 Q1019 NOSIG

Time: 17:03 (14:03 UTC)

Forecast

The report was made 54 minutes ago, at 13:09 UTC
Forecast valid from 21 at 12 UTC to 22 at 18 UTC
Wind 10 kt from the Northwest
Visibility: 8000 m
Temporary
from 21 at 12 UTC to 21 at 17 UTC
Wind 18 kt from the Northwest
Probability 30% :
Temporary
from 21 at 12 UTC to 21 at 17 UTC
Visibility: 4000 m
Blowing dust

TAF: OTBD 211309Z 2112/2218 32010KT 8000 NSC TEMPO 2112/2117 32018KT PROB30 TEMPO 2112/2117 4000 BLDU

Weather observations and forecasts of more than 4000 airports (METAR and TAF reports).

The available stations are represented by yellow and red dots on the map.

Hover mouse over dot to see the name of the station.

Then click to see weather observations and forecasts.

To change the map : click on the green buttons with a black cross to zoom in, on the green button with a dash to zoom out, or on the green arrows for adjacent maps.


METAR-TAF: